Estación Meteorológica Peña el Pijo (Robertgarden) [ 07/23/19 00:40:32 CEST ]

Fecha Hora Presion(HPa) Temp (°C) Humedad % Rocio (°C) Viento ( m/s) Direccion Lluvia 1Hora(mm) Lluvia 24H(mm) LLuvia Total(mm)
2019-Jun-05 01:01:42 1003.500 15.4 59 7.4         318.05
2019-Jun-05 02:01:44 1003.100 17.9 57 9.2         318.05
2019-Jun-05 03:01:40 1002.700 17.6 58 9.2         318.05
2019-Jun-05 04:01:44 1002.600 17.2 61 9.6         318.05
2019-Jun-05 05:01:40 1002.100 16.9 64 10.0         318.05
2019-Jun-05 06:01:43 1001.800 16.3 65 9.7         318.05
2019-Jun-05 07:01:30 1002.200 15.7 63 8.7         318.05
2019-Jun-05 08:01:34 1002.500 15.5 62 8.3         318.05
2019-Jun-05 09:01:46 1003.000 17.1 50 6.6 1.8 N     318.05
2019-Jun-05 10:01:36 1003.600 17.2 44 4.8         318.05
2019-Jun-05 11:01:38 1004.100 18.4 38 3.8         318.05
2019-Jun-05 12:01:47 1004.800 19.1 30 1.2 4.2 N     318.05
2019-Jun-05 13:01:52 1004.900 20.2 30 2.1         318.05
2019-Jun-05 14:01:41 1004.900 20.8 31 3.0         318.05
2019-Jun-05 15:01:48 1005.300 21.6 30 3.3 0.5 NNE     318.05
2019-Jun-05 16:02:12 1005.000 22.4 29 3.4 2.6 WNW     318.05
2019-Jun-05 17:02:01 1004.600 23.5 28 3.8         318.05
2019-Jun-05 18:01:57 1005.300 20.8 31 3.0         318.05
2019-Jun-05 19:01:55 1005.300 21.8 30 3.5         318.05
2019-Jun-05 20:01:50 1005.500 18.8 34 2.5         318.05
2019-Jun-05 21:01:39 1005.800 17.6 34 1.4         318.05
2019-Jun-05 22:02:05 1006.400 15.9 37 1.1         318.05
2019-Jun-05 23:01:52 1006.800 14.7 49 4.1         318.05

Temperatura Máxima:23°    Temperatura Mínima:14°
Presión Máxima:1006.800 Hpa    Presión Mínima:1001.800 Hpa


Volver